Time,TemperatureF,DewpointF,PressureIn,WindDirection,WindDirectionDegrees,WindSpeedMPH,WindSpeedGustMPH,Humidity,HourlyPrecipIn,Conditions,Clouds,dailyrainin,SoftwareType,DateUTC
2013-02-17 00:02:00,3.0,-2.0,30.08,SSE,150,3.0,4.0,79,0.00,,,0.00,,2013-02-17 06:02:00,
2013-02-17 00:11:00,3.0,-2.0,30.08,SSE,150,3.0,4.0,79,0.00,,,0.00,,2013-02-17 06:11:00,
2013-02-17 00:21:00,2.0,-3.0,30.08,SSE,150,3.0,5.0,79,0.00,,,0.00,,2013-02-17 06:21:00,
2013-02-17 00:31:00,2.0,-3.0,30.07,SSE,150,4.0,5.0,80,0.00,,,0.00,,2013-02-17 06:31:00,
2013-02-17 00:41:00,2.0,-3.0,30.07,SSE,150,4.0,5.0,80,0.00,,,0.00,,2013-02-17 06:41:00,
2013-02-17 00:52:00,3.0,-2.0,30.08,SSE,150,4.0,5.0,80,0.00,,,0.00,,2013-02-17 06:52:00,
2013-02-17 01:01:00,3.0,-2.0,30.08,SSE,150,2.0,3.0,79,0.00,,,0.00,,2013-02-17 07:01:00,
2013-02-17 01:11:00,3.0,-2.0,30.08,SSE,150,2.0,3.0,79,0.00,,,0.00,,2013-02-17 07:11:00,
2013-02-17 01:21:00,2.0,-2.0,30.08,SE,135,4.0,6.0,81,0.00,,,0.00,,2013-02-17 07:21:00,
2013-02-17 01:31:00,2.0,-3.0,30.07,SE,133,4.0,5.0,80,0.00,,,0.00,,2013-02-17 07:31:00,
2013-02-17 01:41:00,2.0,-3.0,30.07,SE,133,4.0,5.0,80,0.00,,,0.00,,2013-02-17 07:41:00,
2013-02-17 01:52:00,2.0,-3.0,30.06,ESE,119,5.0,8.0,80,0.00,,,0.00,,2013-02-17 07:52:00,
2013-02-17 02:01:00,3.0,-2.0,30.06,SE,127,5.0,7.0,80,0.00,,,0.00,,2013-02-17 08:01:00,
2013-02-17 02:11:00,3.0,-2.0,30.06,SE,127,5.0,7.0,80,0.00,,,0.00,,2013-02-17 08:11:00,
2013-02-17 02:21:00,3.0,-2.0,30.06,SE,127,5.0,7.0,80,0.00,,,0.00,,2013-02-17 08:21:00,
2013-02-17 02:31:00,6.0,1.0,30.06,SE,139,9.0,13.0,78,0.00,,,0.00,,2013-02-17 08:31:00,
2013-02-17 02:42:00,6.0,1.0,30.06,SE,139,9.0,13.0,78,0.00,,,0.00,,2013-02-17 08:42:00,
2013-02-17 02:52:00,6.0,0.0,30.07,SSE,148,7.0,10.0,77,0.00,,,0.00,,2013-02-17 08:52:00,
2013-02-17 03:01:00,7.0,1.0,30.07,SE,144,5.0,9.0,75,0.00,,,0.00,,2013-02-17 09:01:00,
2013-02-17 03:11:00,7.0,1.0,30.07,SE,144,5.0,9.0,75,0.00,,,0.00,,2013-02-17 09:11:00,
2013-02-17 03:21:00,7.0,1.0,30.06,SSE,147,5.0,10.0,75,0.00,,,0.00,,2013-02-17 09:21:00,
2013-02-17 03:31:00,7.0,0.0,30.06,SE,146,6.0,9.0,74,0.00,,,0.00,,2013-02-17 09:31:00,
2013-02-17 03:41:00,7.0,0.0,30.06,SE,146,6.0,9.0,74,0.00,,,0.00,,2013-02-17 09:41:00,
2013-02-17 03:51:00,7.0,0.0,30.05,SE,143,6.0,8.0,74,0.00,,,0.00,,2013-02-17 09:51:00,
2013-02-17 04:01:00,7.0,1.0,30.05,SE,144,6.0,10.0,75,0.00,,,0.00,,2013-02-17 10:01:00,
2013-02-17 04:11:00,7.0,1.0,30.05,SE,144,6.0,10.0,75,0.00,,,0.00,,2013-02-17 10:11:00,
2013-02-17 04:21:00,7.0,1.0,30.03,SE,138,7.0,11.0,75,0.00,,,0.00,,2013-02-17 10:21:00,
2013-02-17 04:31:00,7.0,1.0,30.03,SE,135,8.0,12.0,75,0.00,,,0.00,,2013-02-17 10:31:00,
2013-02-17 04:41:00,7.0,1.0,30.03,SE,135,8.0,12.0,75,0.00,,,0.00,,2013-02-17 10:41:00,
2013-02-17 04:52:00,7.0,1.0,30.03,SE,137,7.0,11.0,75,0.00,,,0.00,,2013-02-17 10:52:00,
2013-02-17 05:01:00,7.0,1.0,30.02,SE,136,7.0,10.0,76,0.00,,,0.00,,2013-02-17 11:01:00,
2013-02-17 05:11:00,7.0,1.0,30.02,SE,136,7.0,10.0,76,0.00,,,0.00,,2013-02-17 11:11:00,
2013-02-17 05:21:00,7.0,1.0,30.02,SE,136,7.0,12.0,76,0.00,,,0.00,,2013-02-17 11:21:00,
2013-02-17 05:32:00,8.0,2.0,30.01,SE,136,8.0,11.0,76,0.00,,,0.00,,2013-02-17 11:32:00,
2013-02-17 05:42:00,8.0,2.0,30.01,SE,136,8.0,11.0,76,0.00,,,0.00,,2013-02-17 11:42:00,
2013-02-17 05:52:00,8.0,2.0,30.00,SE,138,9.0,14.0,75,0.00,,,0.00,,2013-02-17 11:52:00,
2013-02-17 06:03:00,8.0,2.0,30.00,SSE,151,6.0,9.0,75,0.00,,,0.00,,2013-02-17 12:03:00,
2013-02-17 06:11:00,8.0,2.0,30.00,SSE,151,6.0,9.0,75,0.00,,,0.00,,2013-02-17 12:11:00,
2013-02-17 06:22:00,8.0,2.0,30.00,SSE,148,6.0,10.0,75,0.00,,,0.00,,2013-02-17 12:22:00,
2013-02-17 06:32:00,8.0,2.0,30.00,SE,138,7.0,10.0,75,0.00,,,0.00,,2013-02-17 12:32:00,
2013-02-17 06:42:00,8.0,2.0,30.00,SE,138,7.0,10.0,75,0.00,,,0.00,,2013-02-17 12:42:00,
2013-02-17 06:52:00,7.0,1.0,29.99,SE,137,7.0,9.0,76,0.00,,,0.00,,2013-02-17 12:52:00,
2013-02-17 07:02:00,7.0,1.0,29.98,SE,136,8.0,13.0,76,0.00,,,0.00,,2013-02-17 13:02:00,
2013-02-17 07:12:00,7.0,1.0,29.98,SE,136,8.0,13.0,76,0.00,,,0.00,,2013-02-17 13:12:00,
2013-02-17 07:21:00,8.0,2.0,29.98,SE,133,8.0,14.0,77,0.00,,,0.00,,2013-02-17 13:21:00,
2013-02-17 07:32:00,8.0,2.0,29.98,SE,134,7.0,12.0,77,0.00,,,0.00,,2013-02-17 13:32:00,
2013-02-17 07:41:00,8.0,2.0,29.98,SE,134,7.0,12.0,77,0.00,,,0.00,,2013-02-17 13:41:00,
2013-02-17 07:51:00,9.0,3.0,29.97,SE,144,9.0,12.0,77,0.00,,,0.00,,2013-02-17 13:51:00,
2013-02-17 08:01:00,9.0,3.0,29.96,SE,143,9.0,13.0,77,0.00,,,0.00,,2013-02-17 14:01:00,
2013-02-17 08:11:00,9.0,3.0,29.96,SE,143,9.0,13.0,77,0.00,,,0.00,,2013-02-17 14:11:00,
2013-02-17 08:21:00,10.0,4.0,29.96,SE,138,11.0,15.0,76,0.00,,,0.00,,2013-02-17 14:21:00,
2013-02-17 08:32:00,10.0,4.0,29.96,SE,144,9.0,15.0,76,0.00,,,0.00,,2013-02-17 14:32:00,
2013-02-17 08:42:00,10.0,4.0,29.96,SE,144,9.0,15.0,76,0.00,,,0.00,,2013-02-17 14:42:00,
2013-02-17 08:53:00,11.0,5.0,29.95,SSE,147,10.0,14.0,76,0.00,,,0.00,,2013-02-17 14:53:00,
2013-02-17 09:02:00,12.0,6.0,29.94,SE,142,10.0,16.0,76,0.00,,,0.00,,2013-02-17 15:02:00,
2013-02-17 09:11:00,12.0,6.0,29.94,SE,142,10.0,16.0,76,0.00,,,0.00,,2013-02-17 15:11:00,
2013-02-17 09:21:00,12.0,6.0,29.94,SSE,147,11.0,19.0,75,0.00,,,0.00,,2013-02-17 15:21:00,
2013-02-17 09:32:00,14.0,7.0,29.95,SSE,151,10.0,15.0,74,0.00,,,0.00,,2013-02-17 15:32:00,
2013-02-17 09:41:00,14.0,7.0,29.95,SSE,151,10.0,15.0,74,0.00,,,0.00,,2013-02-17 15:41:00,
2013-02-17 09:52:00,14.0,7.0,29.95,SSE,156,9.0,14.0,73,0.00,,,0.00,,2013-02-17 15:52:00,
2013-02-17 10:01:00,15.0,8.0,29.94,SSE,148,9.0,15.0,73,0.00,,,0.00,,2013-02-17 16:01:00,
2013-02-17 10:11:00,15.0,8.0,29.94,SSE,148,9.0,15.0,73,0.00,,,0.00,,2013-02-17 16:11:00,
2013-02-17 10:21:00,16.0,9.0,29.94,SSE,151,9.0,17.0,72,0.00,,,0.00,,2013-02-17 16:21:00,
2013-02-17 10:32:00,17.0,9.0,29.92,SSE,152,11.0,16.0,71,0.00,,,0.00,,2013-02-17 16:32:00,
2013-02-17 10:41:00,17.0,9.0,29.92,SSE,152,11.0,16.0,71,0.00,,,0.00,,2013-02-17 16:41:00,
2013-02-17 10:52:00,18.0,10.0,29.91,SSE,148,12.0,17.0,71,0.00,,,0.00,,2013-02-17 16:52:00,
2013-02-17 11:02:00,19.0,11.0,29.91,SSE,148,11.0,16.0,70,0.00,,,0.00,,2013-02-17 17:02:00,
2013-02-17 11:11:00,19.0,11.0,29.91,SSE,148,11.0,16.0,70,0.00,,,0.00,,2013-02-17 17:11:00,
2013-02-17 11:21:00,20.0,11.0,29.91,SSE,150,13.0,20.0,68,0.00,,,0.00,,2013-02-17 17:21:00,
2013-02-17 11:32:00,20.0,11.0,29.91,SSE,156,11.0,17.0,68,0.00,,,0.00,,2013-02-17 17:32:00,
2013-02-17 11:41:00,20.0,11.0,29.91,SSE,156,11.0,17.0,68,0.00,,,0.00,,2013-02-17 17:41:00,
2013-02-17 11:52:00,21.0,12.0,29.90,SE,145,10.0,18.0,68,0.00,,,0.00,,2013-02-17 17:52:00,
2013-02-17 12:02:00,22.0,13.0,29.90,SSE,150,12.0,18.0,67,0.00,,,0.00,,2013-02-17 18:02:00,
2013-02-17 12:11:00,22.0,13.0,29.90,SSE,150,12.0,18.0,67,0.00,,,0.00,,2013-02-17 18:11:00,
2013-02-17 12:22:00,23.0,14.0,29.88,SE,144,11.0,23.0,67,0.00,,,0.00,,2013-02-17 18:22:00,
2013-02-17 12:33:00,24.0,14.0,29.87,SSE,151,11.0,18.0,66,0.00,,,0.00,,2013-02-17 18:33:00,
2013-02-17 12:42:00,24.0,14.0,29.87,SSE,151,11.0,18.0,66,0.00,,,0.00,,2013-02-17 18:42:00,
2013-02-17 12:52:00,25.0,15.0,29.85,SE,145,11.0,19.0,65,0.00,,,0.00,,2013-02-17 18:52:00,
2013-02-17 13:01:00,25.0,15.0,29.84,SSE,148,14.0,22.0,64,0.00,,,0.00,,2013-02-17 19:01:00,
2013-02-17 13:11:00,25.0,15.0,29.84,SSE,148,14.0,22.0,64,0.00,,,0.00,,2013-02-17 19:11:00,
2013-02-17 13:21:00,25.0,15.0,29.83,SSE,148,15.0,25.0,64,0.00,,,0.00,,2013-02-17 19:21:00,
2013-02-17 13:32:00,26.0,16.0,29.83,SSE,149,14.0,23.0,64,0.00,,,0.00,,2013-02-17 19:32:00,
2013-02-17 13:42:00,26.0,16.0,29.83,SSE,149,14.0,23.0,64,0.00,,,0.00,,2013-02-17 19:42:00,
2013-02-17 13:52:00,26.0,15.0,29.83,SSE,151,14.0,26.0,63,0.00,,,0.00,,2013-02-17 19:52:00,
2013-02-17 14:02:00,27.0,16.0,29.82,SSE,151,14.0,22.0,63,0.00,,,0.00,,2013-02-17 20:02:00,
2013-02-17 14:11:00,27.0,16.0,29.82,SSE,151,14.0,22.0,63,0.00,,,0.00,,2013-02-17 20:11:00,
2013-02-17 14:21:00,27.0,16.0,29.81,SSE,151,14.0,23.0,63,0.00,,,0.00,,2013-02-17 20:21:00,
2013-02-17 14:32:00,28.0,17.0,29.80,SSE,149,13.0,19.0,63,0.00,,,0.00,,2013-02-17 20:32:00,
2013-02-17 14:42:00,28.0,17.0,29.80,SSE,149,13.0,19.0,63,0.00,,,0.00,,2013-02-17 20:42:00,
2013-02-17 14:52:00,28.0,17.0,29.79,SSE,151,12.0,20.0,63,0.00,,,0.00,,2013-02-17 20:52:00,
2013-02-17 15:01:00,28.0,17.0,29.78,SSE,147,13.0,23.0,63,0.00,,,0.00,,2013-02-17 21:01:00,
2013-02-17 15:11:00,28.0,17.0,29.78,SSE,147,13.0,23.0,63,0.00,,,0.00,,2013-02-17 21:11:00,
2013-02-17 15:21:00,28.0,17.0,29.77,SSE,148,13.0,22.0,63,0.00,,,0.00,,2013-02-17 21:21:00,
2013-02-17 15:31:00,28.0,17.0,29.77,SE,145,14.0,21.0,64,0.00,,,0.00,,2013-02-17 21:31:00,
2013-02-17 15:41:00,28.0,17.0,29.77,SE,145,14.0,21.0,64,0.00,,,0.00,,2013-02-17 21:41:00,
2013-02-17 15:52:00,28.0,17.0,29.76,SE,145,12.0,22.0,64,0.00,,,0.00,,2013-02-17 21:52:00,
2013-02-17 16:01:00,28.0,17.0,29.76,SE,142,13.0,19.0,64,0.00,,,0.00,,2013-02-17 22:01:00,
2013-02-17 16:12:00,28.0,17.0,29.76,SE,142,13.0,19.0,64,0.00,,,0.00,,2013-02-17 22:12:00,
2013-02-17 16:21:00,28.0,18.0,29.75,SE,145,12.0,20.0,65,0.00,,,0.00,,2013-02-17 22:21:00,
2013-02-17 16:32:00,28.0,18.0,29.75,SE,145,12.0,20.0,65,0.00,,,0.00,,2013-02-17 22:32:00,
2013-02-17 16:42:00,28.0,18.0,29.75,SE,145,12.0,20.0,65,0.00,,,0.00,,2013-02-17 22:42:00,
2013-02-17 16:52:00,28.0,18.0,29.74,SE,145,13.0,21.0,66,0.00,,,0.00,,2013-02-17 22:52:00,
2013-02-17 17:02:00,28.0,18.0,29.74,SE,141,12.0,20.0,66,0.00,,,0.00,,2013-02-17 23:02:00,
2013-02-17 17:11:00,28.0,18.0,29.74,SE,141,12.0,20.0,66,0.00,,,0.00,,2013-02-17 23:11:00,
2013-02-17 17:21:00,28.0,18.0,29.73,SE,142,10.0,16.0,67,0.00,,,0.00,,2013-02-17 23:21:00,
2013-02-17 17:32:00,28.0,18.0,29.72,SE,139,12.0,20.0,67,0.00,,,0.00,,2013-02-17 23:32:00,
2013-02-17 17:42:00,28.0,18.0,29.72,SE,139,12.0,20.0,67,0.00,,,0.00,,2013-02-17 23:42:00,
2013-02-17 17:52:00,27.0,18.0,29.72,SE,140,12.0,20.0,67,0.00,,,0.00,,2013-02-17 23:52:00,
2013-02-17 18:01:00,27.0,18.0,29.71,SE,145,13.0,23.0,68,0.00,,,0.00,,2013-02-18 00:01:00,
2013-02-17 18:11:00,27.0,18.0,29.71,SE,145,13.0,23.0,68,0.00,,,0.00,,2013-02-18 00:11:00,
2013-02-17 18:22:00,27.0,18.0,29.71,SE,141,12.0,21.0,68,0.00,,,0.00,,2013-02-18 00:22:00,
2013-02-17 18:31:00,27.0,18.0,29.71,SE,142,13.0,21.0,69,0.00,,,0.00,,2013-02-18 00:31:00,
2013-02-17 18:41:00,27.0,18.0,29.71,SE,142,13.0,21.0,69,0.00,,,0.00,,2013-02-18 00:41:00,
2013-02-17 18:52:00,27.0,18.0,29.70,SE,144,12.0,18.0,69,0.00,,,0.00,,2013-02-18 00:52:00,
2013-02-17 19:01:00,26.0,17.0,29.70,SSE,147,12.0,18.0,69,0.00,,,0.00,,2013-02-18 01:01:00,
2013-02-17 19:11:00,26.0,17.0,29.70,SSE,147,12.0,18.0,69,0.00,,,0.00,,2013-02-18 01:11:00,
2013-02-17 19:21:00,26.0,17.0,29.70,SE,146,12.0,19.0,69,0.00,,,0.00,,2013-02-18 01:21:00,
2013-02-17 19:31:00,26.0,18.0,29.70,SE,142,13.0,20.0,70,0.00,,,0.00,,2013-02-18 01:31:00,
2013-02-17 19:41:00,26.0,18.0,29.70,SE,142,13.0,20.0,70,0.00,,,0.00,,2013-02-18 01:41:00,
2013-02-17 19:52:00,26.0,18.0,29.70,SE,146,12.0,18.0,70,0.00,,,0.00,,2013-02-18 01:52:00,
2013-02-17 20:01:00,26.0,18.0,29.70,SE,146,13.0,21.0,71,0.00,,,0.00,,2013-02-18 02:01:00,
2013-02-17 20:11:00,26.0,18.0,29.70,SE,146,13.0,21.0,71,0.00,,,0.00,,2013-02-18 02:11:00,
2013-02-17 20:21:00,26.0,18.0,29.69,SE,143,11.0,20.0,71,0.00,,,0.00,,2013-02-18 02:21:00,
2013-02-17 20:32:00,26.0,18.0,29.69,SE,146,12.0,18.0,72,0.00,,,0.00,,2013-02-18 02:32:00,
2013-02-17 20:41:00,26.0,18.0,29.69,SE,146,12.0,18.0,72,0.00,,,0.00,,2013-02-18 02:41:00,
2013-02-17 20:52:00,26.0,18.0,29.68,SE,146,13.0,20.0,72,0.00,,,0.00,,2013-02-18 02:52:00,
2013-02-17 21:01:00,26.0,18.0,29.68,SSE,151,13.0,21.0,72,0.00,,,0.00,,2013-02-18 03:01:00,
2013-02-17 21:11:00,26.0,18.0,29.68,SSE,151,13.0,21.0,72,0.00,,,0.00,,2013-02-18 03:11:00,
2013-02-17 21:21:00,26.0,18.0,29.68,SE,142,11.0,18.0,72,0.00,,,0.00,,2013-02-18 03:21:00,
2013-02-17 21:31:00,26.0,19.0,29.68,SE,142,11.0,19.0,73,0.00,,,0.00,,2013-02-18 03:31:00,
2013-02-17 21:42:00,26.0,19.0,29.68,SE,142,11.0,19.0,73,0.00,,,0.00,,2013-02-18 03:42:00,
2013-02-17 21:52:00,26.0,19.0,29.68,SE,139,11.0,19.0,73,0.00,,,0.00,,2013-02-18 03:52:00,
2013-02-17 22:01:00,26.0,19.0,29.67,SE,138,11.0,17.0,73,0.00,,,0.00,,2013-02-18 04:01:00,
2013-02-17 22:11:00,26.0,19.0,29.67,SE,138,11.0,17.0,73,0.00,,,0.00,,2013-02-18 04:11:00,
2013-02-17 22:21:00,26.0,19.0,29.67,SE,135,10.0,16.0,73,0.00,,,0.00,,2013-02-18 04:21:00,
2013-02-17 22:32:00,25.0,18.0,29.66,SE,135,10.0,17.0,74,0.00,,,0.00,,2013-02-18 04:32:00,
2013-02-17 22:41:00,25.0,18.0,29.66,SE,135,10.0,17.0,74,0.00,,,0.00,,2013-02-18 04:41:00,
2013-02-17 22:52:00,26.0,19.0,29.66,SE,138,10.0,15.0,74,0.00,,,0.00,,2013-02-18 04:52:00,
2013-02-17 23:02:00,26.0,19.0,29.65,SE,140,11.0,20.0,74,0.00,,,0.00,,2013-02-18 05:02:00,
2013-02-17 23:11:00,26.0,19.0,29.65,SE,140,11.0,20.0,74,0.00,,,0.00,,2013-02-18 05:11:00,
2013-02-17 23:21:00,26.0,19.0,29.64,SE,141,13.0,18.0,74,0.00,,,0.00,,2013-02-18 05:21:00,
2013-02-17 23:31:00,26.0,19.0,29.63,SE,140,12.0,23.0,74,0.00,,,0.00,,2013-02-18 05:31:00,
2013-02-17 23:41:00,26.0,19.0,29.63,SE,140,12.0,23.0,74,0.00,,,0.00,,2013-02-18 05:41:00,
2013-02-17 23:52:00,26.0,19.0,29.62,SE,136,14.0,21.0,74,0.00,,,0.00,,2013-02-18 05:52:00,